createdAt,value
2019-05-11T00:00:17.962Z,100978.23
2019-05-11T00:02:47.139Z,100978.23
2019-05-11T00:05:16.365Z,100972.07
2019-05-11T00:07:45.543Z,100954.47
2019-05-11T00:10:14.784Z,100954.47
2019-05-11T00:12:43.972Z,100951.86
2019-05-11T00:15:13.424Z,100951.86
2019-05-11T00:17:42.644Z,100950.52
2019-05-11T00:20:12.212Z,100948.80
2019-05-11T00:22:41.426Z,100948.80
2019-05-11T00:25:10.677Z,100950.66
2019-05-11T00:27:39.851Z,100950.66
2019-05-11T00:30:28.311Z,100941.14
2019-05-11T00:32:57.491Z,100941.14
2019-05-11T00:35:26.685Z,100943.27
2019-05-11T00:37:55.874Z,100942.37
2019-05-11T00:40:25.045Z,100942.37
2019-05-11T00:42:54.224Z,100943.13
2019-05-11T00:45:24.413Z,100943.13
2019-05-11T00:47:53.596Z,100946.84
2019-05-11T00:50:37.930Z,100952.33
2019-05-11T00:52:54.199Z,100949.44
2019-05-11T00:55:23.394Z,100949.44
2019-05-11T00:57:52.579Z,100944.08
2019-05-11T01:00:21.822Z,100947.08
2019-05-11T01:02:51.009Z,100960.40
2019-05-11T01:05:20.181Z,100962.80
2019-05-11T01:07:49.368Z,100962.80
2019-05-11T01:10:25.620Z,100955.89
2019-05-11T01:12:49.608Z,100952.63
2019-05-11T01:15:19.212Z,100952.63
2019-05-11T01:17:48.476Z,100955.42
2019-05-11T01:20:18.807Z,100946.17
2019-05-11T01:22:48.083Z,100946.17
2019-05-11T01:25:17.324Z,100939.30
2019-05-11T01:27:46.629Z,100943.30
2019-05-11T01:30:16.737Z,100938.75
2019-05-11T01:32:46.040Z,100938.75
2019-05-11T01:35:16.854Z,100932.54
2019-05-11T01:37:46.135Z,100941.21
2019-05-11T01:40:15.658Z,100937.64
2019-05-11T01:42:44.977Z,100939.64
2019-05-11T01:45:14.341Z,100938.06
2019-05-11T01:48:01.990Z,100935.38
2019-05-11T01:50:31.201Z,100928.28
2019-05-11T01:53:02.509Z,100936.13
2019-05-11T01:55:31.671Z,100936.13
2019-05-11T01:58:00.841Z,100932.37
2019-05-11T02:00:30.110Z,100941.08
2019-05-11T02:03:00.209Z,100938.14
2019-05-11T02:05:32.386Z,100936.13
2019-05-11T02:08:02.807Z,100942.79
2019-05-11T02:10:32.443Z,100942.31
2019-05-11T02:13:01.627Z,100942.31
2019-05-11T02:15:30.854Z,100938.20
2019-05-11T02:18:00.069Z,100941.79
2019-05-11T02:20:29.250Z,100941.79
2019-05-11T02:22:58.433Z,100946.04
2019-05-11T02:25:27.632Z,100946.04
2019-05-11T02:27:56.804Z,100952.36
2019-05-11T02:30:26.075Z,100954.42
2019-05-11T02:32:55.234Z,100952.91
2019-05-11T02:35:24.425Z,100956.44
2019-05-11T02:37:53.621Z,100956.73
2019-05-11T02:40:23.022Z,100954.25
2019-05-11T02:42:53.114Z,100953.92
2019-05-11T02:45:33.517Z,100959.34
2019-05-11T02:48:02.770Z,100959.34
2019-05-11T02:50:32.686Z,100961.54
2019-05-11T02:53:03.474Z,100961.54
2019-05-11T02:55:34.551Z,100962.56
2019-05-11T02:58:05.162Z,100966.86
2019-05-11T03:00:42.453Z,100972.08
2019-05-11T03:03:12.187Z,100976.70
2019-05-11T03:05:41.526Z,100977.04
2019-05-11T03:08:10.709Z,100982.39
2019-05-11T03:10:39.910Z,100984.50
2019-05-11T03:13:09.054Z,100985.00
2019-05-11T03:15:38.324Z,100991.45
2019-05-11T03:18:07.495Z,100985.17
2019-05-11T03:20:37.447Z,100990.93
2019-05-11T03:23:06.636Z,100990.13
2019-05-11T03:25:35.808Z,100994.17
2019-05-11T03:28:05.079Z,100998.29
2019-05-11T03:30:34.257Z,100993.85
2019-05-11T03:33:03.451Z,101004.36
2019-05-11T03:35:32.600Z,100993.66
2019-05-11T03:38:01.812Z,100998.80
2019-05-11T03:40:30.966Z,101002.58
2019-05-11T03:43:00.148Z,101002.91
2019-05-11T03:45:29.319Z,101005.22
2019-05-11T03:47:58.490Z,100998.33
2019-05-11T03:50:27.668Z,101008.77
2019-05-11T03:52:56.864Z,101004.27
2019-05-11T03:55:27.069Z,101008.28
2019-05-11T03:57:56.403Z,101005.61
2019-05-11T04:00:25.715Z,101008.44
2019-05-11T04:02:54.892Z,101009.36
2019-05-11T04:05:24.057Z,101009.86
2019-05-11T04:07:53.158Z,101018.02
2019-05-11T04:10:25.108Z,101011.36
2019-05-11T04:12:53.214Z,101012.30
2019-05-11T04:15:22.528Z,101017.97
2019-05-11T04:17:51.723Z,101013.17
2019-05-11T04:20:20.894Z,101019.32
2019-05-11T04:22:50.075Z,101020.55
2019-05-11T04:25:19.243Z,101022.72
2019-05-11T04:27:48.439Z,101027.71
2019-05-11T04:30:20.134Z,101025.88
2019-05-11T04:32:49.351Z,101023.59
2019-05-11T04:35:18.512Z,101030.27
2019-05-11T04:37:47.702Z,101036.04
2019-05-11T04:40:17.010Z,101038.30
2019-05-11T04:42:55.213Z,101034.16
2019-05-11T04:45:17.106Z,101043.63
2019-05-11T04:47:46.303Z,101040.90
2019-05-11T04:50:15.537Z,101040.00
2019-05-11T04:52:44.726Z,101040.15
2019-05-11T04:55:14.001Z,101042.62
2019-05-11T04:57:43.176Z,101042.77
2019-05-11T05:00:12.986Z,101042.23
2019-05-11T05:02:44.155Z,101053.45
2019-05-11T05:05:13.500Z,101053.67
2019-05-11T05:07:49.005Z,101057.04
2019-05-11T05:10:19.356Z,100988.42
2019-05-11T05:12:50.371Z,101065.10
2019-05-11T05:15:15.631Z,101071.56
2019-05-11T05:17:44.820Z,101073.18
2019-05-11T05:20:14.824Z,101080.08
2019-05-11T05:22:44.025Z,101078.05
2019-05-11T05:25:13.265Z,101087.18
2019-05-11T05:27:42.426Z,101080.28
2019-05-11T05:30:12.066Z,101085.03
2019-05-11T05:32:41.278Z,101090.31
2019-05-11T05:35:10.556Z,101085.78
2019-05-11T05:37:39.742Z,101086.53
2019-05-11T05:40:09.054Z,101085.64
2019-05-11T05:42:38.240Z,101094.35
2019-05-11T05:45:07.760Z,101085.73
2019-05-11T05:47:36.971Z,101088.84
2019-05-11T05:50:07.478Z,101073.40
2019-05-11T05:52:36.588Z,101101.78
2019-05-11T05:55:06.941Z,101099.55
2019-05-11T05:57:36.093Z,101100.49
2019-05-11T06:00:05.998Z,101099.47
2019-05-11T06:02:35.178Z,101105.20
2019-05-11T06:05:07.016Z,101114.98
2019-05-11T06:07:36.200Z,101116.26
2019-05-11T06:10:08.908Z,101124.08
2019-05-11T06:12:38.125Z,101124.82
2019-05-11T06:15:08.134Z,101135.73
2019-05-11T06:17:37.298Z,101134.81
2019-05-11T06:20:07.839Z,101142.47
2019-05-11T06:22:37.596Z,101143.69
2019-05-11T06:25:07.127Z,101147.16
2019-05-11T06:27:36.361Z,101150.28
2019-05-11T06:30:06.881Z,101149.52
2019-05-11T06:32:36.053Z,101161.39
2019-05-11T06:35:09.532Z,101157.23
2019-05-11T06:37:38.729Z,101157.86
2019-05-11T06:40:08.446Z,101161.71
2019-05-11T06:42:37.682Z,101170.84
2019-05-11T06:45:07.233Z,101167.89
2019-05-11T06:47:37.213Z,101165.38
2019-05-11T06:50:06.585Z,101172.22
2019-05-11T06:52:35.783Z,101172.22
2019-05-11T06:55:05.521Z,101172.17
2019-05-11T06:57:34.715Z,101182.87
2019-05-11T07:00:05.423Z,101179.84
2019-05-11T07:02:34.701Z,101176.19
2019-05-11T07:05:04.952Z,101182.73
2019-05-11T07:07:46.571Z,101193.87
2019-05-11T07:10:08.166Z,101198.84
2019-05-11T07:12:37.339Z,101198.49
2019-05-11T07:15:07.594Z,101198.49
2019-05-11T07:17:36.855Z,101206.83
2019-05-11T07:20:08.550Z,101208.11
2019-05-11T07:22:38.693Z,101215.45
2019-05-11T07:25:08.026Z,101218.36
2019-05-11T07:27:37.360Z,101218.05
2019-05-11T07:30:11.149Z,101218.05
2019-05-11T07:32:40.322Z,101215.19
2019-05-11T07:35:10.767Z,101220.27
2019-05-11T07:37:39.943Z,101220.27
2019-05-11T07:40:09.569Z,101240.07
2019-05-11T07:42:38.754Z,101240.07
2019-05-11T07:45:09.537Z,101235.19
2019-05-11T07:47:38.823Z,101242.28
2019-05-11T07:50:08.744Z,101242.28
2019-05-11T07:52:38.122Z,101252.59
2019-05-11T07:55:08.687Z,101251.52
2019-05-11T07:57:38.971Z,101257.27
2019-05-11T08:00:09.050Z,101267.61
2019-05-11T08:02:38.830Z,101269.36
2019-05-11T08:05:09.465Z,101279.80
2019-05-11T08:07:38.567Z,101284.22
2019-05-11T08:10:08.458Z,101286.98
2019-05-11T08:12:39.087Z,101296.73
2019-05-11T08:15:13.314Z,101296.72
2019-05-11T08:17:40.127Z,101275.61
2019-05-11T08:20:09.709Z,101308.11
2019-05-11T08:22:38.934Z,101304.48
2019-05-11T08:25:14.348Z,101306.04
2019-05-11T08:27:44.511Z,101310.88
2019-05-11T08:30:14.795Z,101312.83
2019-05-11T08:32:43.991Z,101323.17
2019-05-11T08:35:13.444Z,101326.05
2019-05-11T08:37:42.633Z,101322.79
2019-05-11T08:40:13.797Z,101327.86
2019-05-11T08:42:42.992Z,101326.59
2019-05-11T08:45:20.331Z,101330.30
2019-05-11T08:47:43.234Z,101335.23
2019-05-11T08:50:15.225Z,101334.98
2019-05-11T08:52:43.673Z,101333.30
2019-05-11T08:55:13.432Z,101345.98
2019-05-11T08:57:42.598Z,101346.22
2019-05-11T09:00:19.794Z,101348.67
2019-05-11T09:02:50.800Z,101351.19
2019-05-11T09:05:19.887Z,101359.11
2019-05-11T09:07:49.061Z,101370.25
2019-05-11T09:10:20.484Z,101364.27
2019-05-11T09:12:49.775Z,101364.02
2019-05-11T09:15:32.508Z,101369.34
2019-05-11T09:17:50.877Z,101375.05
2019-05-11T09:20:20.347Z,101371.32
2019-05-11T09:22:49.525Z,101376.88
2019-05-11T09:25:18.722Z,101375.78
2019-05-11T09:27:48.453Z,101382.73
2019-05-11T09:30:18.550Z,101396.64
2019-05-11T09:32:47.995Z,101406.69
2019-05-11T09:35:18.870Z,101391.81
2019-05-11T09:37:48.553Z,101407.05
2019-05-11T09:40:18.495Z,101406.23
2019-05-11T09:42:48.022Z,101409.02
2019-05-11T09:45:18.655Z,101409.28
2019-05-11T09:47:48.192Z,101407.98
2019-05-11T09:50:18.054Z,101408.16
2019-05-11T09:52:49.381Z,101405.58
2019-05-11T09:55:19.193Z,101412.70
2019-05-11T09:57:49.532Z,101414.98
2019-05-11T10:00:19.150Z,101420.93
2019-05-11T10:02:50.301Z,101431.54
2019-05-11T10:05:19.510Z,101421.80
2019-05-11T10:07:48.807Z,101420.06
2019-05-11T10:10:19.121Z,101420.06
2019-05-11T10:12:49.675Z,101431.23
2019-05-11T10:15:19.468Z,101426.53
2019-05-11T10:17:48.636Z,101436.31
2019-05-11T10:20:18.363Z,101433.42
2019-05-11T10:22:50.535Z,101437.31
2019-05-11T10:25:19.724Z,101444.91
2019-05-11T10:27:49.213Z,101446.56
2019-05-11T10:30:18.821Z,101454.02
2019-05-11T10:32:48.520Z,101455.21
2019-05-11T10:35:18.485Z,101452.11
2019-05-11T10:37:48.031Z,101473.61
2019-05-11T10:40:19.033Z,101470.68
2019-05-11T10:42:48.572Z,101476.98
2019-05-11T10:45:18.160Z,101472.03
2019-05-11T10:47:48.902Z,101473.27
2019-05-11T10:50:18.835Z,101482.31
2019-05-11T10:52:48.509Z,101471.55
2019-05-11T10:55:19.438Z,101496.95
2019-05-11T10:57:48.966Z,101490.69
2019-05-11T11:00:18.972Z,101482.81
2019-05-11T11:02:48.147Z,101489.36
2019-05-11T11:05:18.759Z,101489.36
2019-05-11T11:07:48.498Z,101491.34
2019-05-11T11:10:18.390Z,101487.78
2019-05-11T11:12:49.026Z,101472.80
2019-05-11T11:15:19.936Z,101494.48
2019-05-11T11:17:50.141Z,101493.62
2019-05-11T11:20:19.482Z,101506.39
2019-05-11T11:22:48.746Z,101512.22
2019-05-11T11:25:19.921Z,101429.58
2019-05-11T11:27:49.052Z,101496.22
2019-05-11T11:30:19.286Z,101506.36
2019-05-11T11:32:48.546Z,101496.53
2019-05-11T11:35:18.700Z,101526.28
2019-05-11T11:37:48.166Z,101526.28
2019-05-11T11:40:17.920Z,101510.25
2019-05-11T11:42:47.819Z,101519.72
2019-05-11T11:45:18.270Z,101519.72
2019-05-11T11:47:49.325Z,101523.86
2019-05-11T11:50:19.189Z,101528.98
2019-05-11T11:53:08.366Z,101549.73
2019-05-11T11:55:59.400Z,101545.84
2019-05-11T11:58:28.668Z,101545.27
2019-05-11T12:00:58.680Z,101562.76
2019-05-11T12:03:27.933Z,101570.06
2019-05-11T12:05:58.121Z,101570.06
2019-05-11T12:08:28.319Z,101573.06
2019-05-11T12:10:58.920Z,101576.30
2019-05-11T12:13:30.250Z,101546.24
2019-05-11T12:15:59.431Z,101546.24
2019-05-11T12:18:29.511Z,101568.91
2019-05-11T12:20:58.846Z,101561.05
2019-05-11T12:23:28.447Z,101565.58
2019-05-11T12:25:58.136Z,101581.19
2019-05-11T12:28:27.748Z,101598.81
2019-05-11T12:30:58.560Z,101605.80
2019-05-11T12:33:28.020Z,101607.63
2019-05-11T12:35:58.678Z,101627.96
2019-05-11T12:38:28.028Z,101622.16
2019-05-11T12:40:57.930Z,101617.89
2019-05-11T12:43:27.758Z,101610.31
2019-05-11T12:45:58.735Z,101636.50
2019-05-11T12:48:28.536Z,101636.50
2019-05-11T12:50:58.782Z,101640.70
2019-05-11T12:53:28.147Z,101666.11
2019-05-11T12:55:58.964Z,101641.60
2019-05-11T12:58:28.257Z,101637.73
2019-05-11T13:00:58.536Z,101657.03
2019-05-11T13:03:27.993Z,101660.68
2019-05-11T13:05:58.565Z,101652.06
2019-05-11T13:08:27.914Z,101666.71
2019-05-11T13:10:58.461Z,101692.67
2019-05-11T13:13:28.599Z,101685.87
2019-05-11T13:15:58.492Z,101689.09
2019-05-11T13:18:28.074Z,101684.58
2019-05-11T13:20:58.813Z,101697.59
2019-05-11T13:23:28.165Z,101694.59
2019-05-11T13:25:58.562Z,101706.49
2019-05-11T13:28:29.485Z,101710.87
2019-05-11T13:30:58.685Z,101710.87
2019-05-11T13:33:28.122Z,101722.92
2019-05-11T13:35:58.006Z,101711.81
2019-05-11T13:38:28.300Z,101735.69
2019-05-11T13:40:59.025Z,101735.69
2019-05-11T13:43:33.008Z,101740.48
2019-05-11T13:45:59.336Z,101734.09
2019-05-11T13:48:28.521Z,101742.83
2019-05-11T13:50:58.231Z,101727.08
2019-05-11T13:53:27.730Z,101750.98
2019-05-11T13:55:58.632Z,101759.22
2019-05-11T13:58:28.956Z,101774.58
2019-05-11T14:00:58.471Z,101774.58
2019-05-11T14:03:27.848Z,101768.52
2019-05-11T14:05:58.262Z,101772.00
2019-05-11T14:08:27.875Z,101768.72
2019-05-11T14:10:58.012Z,101784.43
2019-05-11T14:13:28.622Z,101786.26
2019-05-11T14:15:58.674Z,101768.41
2019-05-11T14:18:28.279Z,101794.95
2019-05-11T14:20:58.611Z,101793.49
2019-05-11T14:23:31.101Z,101790.93
2019-05-11T14:26:03.840Z,101794.61
2019-05-11T14:28:29.690Z,101798.01
2019-05-11T14:30:58.887Z,101820.70
2019-05-11T14:33:28.402Z,101812.28
2019-05-11T14:35:57.975Z,101825.60
2019-05-11T14:38:28.858Z,101830.05
2019-05-11T14:40:58.700Z,101820.16
2019-05-11T14:43:27.966Z,101844.68
2019-05-11T14:45:57.795Z,101847.34
2019-05-11T14:48:30.057Z,101859.73
2019-05-11T14:50:59.257Z,101868.19
2019-05-11T14:53:29.798Z,101868.19
2019-05-11T14:55:59.030Z,101875.02
2019-05-11T14:58:28.309Z,101899.81
2019-05-11T15:00:58.397Z,101895.48
2019-05-11T15:03:28.762Z,101913.69
2019-05-11T15:05:58.361Z,101921.55
2019-05-11T15:08:28.761Z,101923.62
2019-05-11T15:10:59.198Z,101918.34
2019-05-11T15:13:28.902Z,101939.34
2019-05-11T15:15:58.725Z,101931.13
2019-05-11T15:18:36.094Z,101929.73
2019-05-11T15:20:59.216Z,101948.82
2019-05-11T15:23:28.633Z,101943.58
2019-05-11T15:25:58.687Z,101950.69
2019-05-11T15:28:28.540Z,101950.69
2019-05-11T15:30:58.688Z,101967.79
2019-05-11T15:33:28.136Z,101971.20
2019-05-11T15:35:58.267Z,101971.20
2019-05-11T15:38:28.384Z,101979.63
2019-05-11T15:40:58.026Z,101974.12
2019-05-11T15:43:28.204Z,101974.12
2019-05-11T15:45:57.972Z,101975.66
2019-05-11T15:48:27.240Z,101985.63
2019-05-11T15:50:57.815Z,102000.55
2019-05-11T15:53:27.212Z,102029.39
2019-05-11T15:55:59.552Z,102029.39
2019-05-11T15:58:29.129Z,102003.84
2019-05-11T16:00:58.836Z,101990.45
2019-05-11T16:03:28.154Z,102012.51
2019-05-11T16:05:58.256Z,102035.21
2019-05-11T16:08:28.315Z,102018.86
2019-05-11T16:10:57.893Z,102037.14
2019-05-11T16:13:28.477Z,102037.14
2019-05-11T16:15:57.890Z,102034.13
2019-05-11T16:18:27.094Z,102050.59
2019-05-11T16:20:58.174Z,102046.31
2019-05-11T16:23:28.379Z,102068.66
2019-05-11T16:25:58.161Z,102048.64
2019-05-11T16:28:30.594Z,102065.52
2019-05-11T16:30:58.489Z,102072.80
2019-05-11T16:33:27.652Z,102073.55
2019-05-11T16:36:00.520Z,102101.42
2019-05-11T16:38:29.114Z,102101.42
2019-05-11T16:40:58.547Z,102091.79
2019-05-11T16:43:28.131Z,102099.33
2019-05-11T16:45:57.970Z,102100.33
2019-05-11T16:48:27.722Z,102097.50
2019-05-11T16:50:57.983Z,102101.53
2019-05-11T16:53:28.495Z,102119.09
2019-05-11T16:55:57.889Z,102122.42
2019-05-11T16:58:27.863Z,102139.20
2019-05-11T17:00:58.846Z,102128.94
2019-05-11T17:03:28.127Z,102133.88
2019-05-11T17:05:58.856Z,102116.76
2019-05-11T17:08:28.248Z,102150.77
2019-05-11T17:10:59.875Z,102151.11
2019-05-11T17:13:29.068Z,102154.72
2019-05-11T17:15:58.511Z,102154.67
2019-05-11T17:18:28.575Z,102158.98
2019-05-11T17:20:58.425Z,102142.13
2019-05-11T17:23:30.975Z,102159.52
2019-05-11T17:25:58.845Z,102162.15
2019-05-11T17:28:28.093Z,102189.86
2019-05-11T17:30:59.086Z,102175.48
2019-05-11T17:33:28.634Z,102178.74
2019-05-11T17:35:58.722Z,102183.05
2019-05-11T17:38:28.254Z,102181.38
2019-05-11T17:40:57.838Z,102191.22
2019-05-11T17:43:28.116Z,102194.58
2019-05-11T17:45:58.505Z,102204.94
2019-05-11T17:48:28.343Z,102204.44
2019-05-11T17:50:58.098Z,102212.27
2019-05-11T17:53:28.542Z,102217.24
2019-05-11T17:55:58.066Z,102208.88
2019-05-11T17:58:28.148Z,102221.22
2019-05-11T18:00:59.134Z,102221.79
2019-05-11T18:03:28.307Z,102226.09
2019-05-11T18:05:58.940Z,102239.80
2019-05-11T18:08:30.778Z,102239.80
2019-05-11T18:10:59.428Z,102238.45
2019-05-11T18:13:28.691Z,102243.19
2019-05-11T18:15:58.297Z,102245.05
2019-05-11T18:18:29.072Z,102258.82
2019-05-11T18:20:58.525Z,102258.82
2019-05-11T18:23:39.716Z,102262.67
2019-05-11T18:26:12.057Z,102250.67
2019-05-11T18:28:43.015Z,102250.67
2019-05-11T18:31:12.225Z,102275.88
2019-05-11T18:33:41.428Z,102275.88
2019-05-11T18:36:10.682Z,102288.02
2019-05-11T18:38:39.929Z,102288.02
2019-05-11T18:41:09.121Z,102303.50
2019-05-11T18:43:38.312Z,102303.50
2019-05-11T18:46:08.485Z,102298.25
2019-05-11T18:48:38.154Z,102303.11
2019-05-11T18:51:08.681Z,102302.80
2019-05-11T18:53:38.002Z,102306.97
2019-05-11T18:56:08.782Z,102316.55
2019-05-11T18:58:52.904Z,102323.10
2019-05-11T19:01:28.534Z,102309.95
2019-05-11T19:04:00.022Z,102316.81
2019-05-11T19:06:28.880Z,102351.41
2019-05-11T19:08:58.227Z,102343.27
2019-05-11T19:11:28.934Z,102343.27
2019-05-11T19:13:58.356Z,102344.83
2019-05-11T19:16:28.839Z,102368.99
2019-05-11T19:18:58.643Z,102368.99
2019-05-11T19:21:27.936Z,102383.52
2019-05-11T19:23:58.121Z,102383.52
2019-05-11T19:26:27.335Z,102365.26
2019-05-11T19:28:57.835Z,102381.55
2019-05-11T19:31:29.395Z,102381.55
2019-05-11T19:33:58.588Z,102385.00
2019-05-11T19:36:27.862Z,102388.31
2019-05-11T19:38:58.400Z,102390.23
2019-05-11T19:41:27.988Z,102384.87
2019-05-11T19:43:57.718Z,102405.97
2019-05-11T19:46:27.996Z,102396.09
2019-05-11T19:48:58.030Z,102414.55
2019-05-11T19:51:29.130Z,102414.55
2019-05-11T19:53:59.353Z,102421.34
2019-05-11T19:56:29.072Z,102419.23
2019-05-11T19:58:58.308Z,102429.38
2019-05-11T20:01:27.881Z,102429.77
2019-05-11T20:03:57.146Z,102443.66
2019-05-11T20:06:28.068Z,102438.55
2019-05-11T20:08:58.103Z,102446.95
2019-05-11T20:11:28.043Z,102446.95
2019-05-11T20:13:59.007Z,102443.81
2019-05-11T20:16:28.356Z,102469.57
2019-05-11T20:18:57.854Z,102469.57
2019-05-11T20:21:29.067Z,102476.64
2019-05-11T20:23:57.997Z,102481.03
2019-05-11T20:26:28.640Z,102481.03
2019-05-11T20:28:58.801Z,102465.86
2019-05-11T20:31:28.532Z,102495.67
2019-05-11T20:33:57.703Z,102496.95
2019-05-11T20:36:26.900Z,102496.95
2019-05-11T20:38:56.169Z,102493.84
2019-05-11T20:41:25.341Z,102499.13
2019-05-11T20:43:54.562Z,102506.77
2019-05-11T20:46:23.773Z,102506.77
2019-05-11T20:48:52.993Z,102517.87
2019-05-11T20:51:33.132Z,102517.87
2019-05-11T20:53:53.170Z,102531.55
2019-05-11T20:56:22.386Z,102539.56
2019-05-11T20:58:58.770Z,102534.73
2019-05-11T21:01:28.676Z,102539.53
2019-05-11T21:03:58.703Z,102535.28
2019-05-11T21:06:29.399Z,102544.07
2019-05-11T21:08:58.990Z,102549.05
2019-05-11T21:11:28.169Z,102553.48
2019-05-11T21:13:57.359Z,102553.48
2019-05-11T21:16:26.623Z,102561.02
2019-05-11T21:19:14.719Z,102566.05
2019-05-11T21:22:02.191Z,102566.05
2019-05-11T21:24:31.446Z,102567.53
2019-05-11T21:27:00.755Z,102581.88
2019-05-11T21:29:31.348Z,102581.88
2019-05-11T21:32:00.746Z,102584.17
2019-05-11T21:34:29.945Z,102588.73
2019-05-11T21:36:59.130Z,102588.73
2019-05-11T21:39:28.842Z,102588.34
2019-05-11T21:41:58.412Z,102595.48
2019-05-11T21:44:27.897Z,102598.52
2019-05-11T21:46:59.065Z,102600.81
2019-05-11T21:49:28.262Z,102600.81
2019-05-11T21:52:04.369Z,102604.98
2019-05-11T21:54:30.238Z,102613.24
2019-05-11T21:56:59.208Z,102612.06
2019-05-11T21:59:28.464Z,102605.80
2019-05-11T22:01:57.642Z,102606.58
2019-05-11T22:04:28.532Z,102612.91
2019-05-11T22:06:58.747Z,102620.45
2019-05-11T22:09:28.245Z,102624.67
2019-05-11T22:12:07.853Z,102623.87
2019-05-11T22:14:38.448Z,102630.22
2019-05-11T22:17:07.891Z,102634.44
2019-05-11T22:19:40.193Z,102638.55
2019-05-11T22:22:21.144Z,102641.27
2019-05-11T22:24:38.836Z,102644.86
2019-05-11T22:27:08.155Z,102649.70
2019-05-11T22:29:37.900Z,102655.92
2019-05-11T22:32:07.273Z,102655.45
2019-05-11T22:34:37.818Z,102656.91
2019-05-11T22:37:08.675Z,102665.81
2019-05-11T22:39:38.007Z,102665.81
2019-05-11T22:42:07.922Z,102660.81
2019-05-11T22:44:38.644Z,102675.66
2019-05-11T22:47:08.927Z,102669.61
2019-05-11T22:49:38.231Z,102675.77
2019-05-11T22:52:08.614Z,102677.15
2019-05-11T22:54:38.415Z,102684.06
2019-05-11T22:57:08.205Z,102684.03
2019-05-11T22:59:38.507Z,102693.68
2019-05-11T23:02:10.728Z,102695.29
2019-05-11T23:04:38.714Z,102701.83
2019-05-11T23:07:08.094Z,102705.13
2019-05-11T23:09:38.169Z,102709.13
2019-05-11T23:12:09.081Z,102710.96
2019-05-11T23:14:38.376Z,102713.50
2019-05-11T23:17:08.074Z,102713.50
2019-05-11T23:19:38.126Z,102712.19
2019-05-11T23:22:08.309Z,102712.62
2019-05-11T23:24:37.710Z,102712.62
2019-05-11T23:27:08.015Z,102711.83
2019-05-11T23:29:38.434Z,102718.08
2019-05-11T23:32:08.645Z,102718.51
2019-05-11T23:34:38.727Z,102718.51
2019-05-11T23:37:08.214Z,102718.08
2019-05-11T23:39:38.766Z,102727.91
2019-05-11T23:42:08.260Z,102722.08
2019-05-11T23:44:37.454Z,102726.10
2019-05-11T23:47:06.636Z,102724.84
2019-05-11T23:49:35.829Z,102723.91
2019-05-11T23:52:05.005Z,102728.83
2019-05-11T23:54:34.482Z,102730.68
2019-05-11T23:57:03.724Z,102730.68
2019-05-11T23:59:32.903Z,102732.02
